Home   Weather   USA   New Port Richey   Past weeks
Flag for USA

Past Weather in New Port Richey, Florida, USA — Yesterday and Last 2 Weeks

Currently: 73 °F. Mostly cloudy. (Weather station: Clearwater Air Park, USA). See more current weather

Past Weather in New Port Richey — Graph

°F

New Port Richey Temperature Yesterday

Maximum temperature yesterday: 81 °F (at 12:15 pm)
Minimum temperature yesterday: 63 °F (at 5:15 pm)
Average temperature yesterday: 71 °F

High & Low Weather Summary for the Past Weeks

 TemperatureHumidityPressure
High86 °F (Mar 27, 2:35 pm)100% (Apr 1, 5:35 am)30.38 "Hg (Apr 1, 5:35 am)
Low46 °F (Apr 2, 6:15 am)29% (Apr 2, 12:15 am)29.75 "Hg (Apr 11, 7:15 am)
Average69 °F69%30.11 "Hg
* Reported Mar 27 10:15 am — Apr 11 10:15 am, New Port Richey. Weather by CustomWeather, © 2021

Note: Actual official high and low records may vary slightly from our data, if they occured in-between our weather recording intervals... More about our weather records

New Port Richey Weather History for the Previous 24 Hours

Scroll right to see more
 ConditionsComfort  
Time TempWeatherWind HumidityBarometerVisibility
10:15 am
Sun, Apr 11
72 °FOvercast.5 mph83%29.78 "Hg10 mi
9:55 am72 °FMostly cloudy.3 mph83%29.78 "Hg10 mi
9:35 am73 °FBroken clouds.5 mph83%29.77 "Hg10 mi
9:15 am70 °FMore clouds than sun.No wind88%29.79 "Hg10 mi
8:55 am70 °FBroken clouds.3 mph83%29.79 "Hg10 mi
8:35 am68 °FScattered clouds.3 mph88%29.77 "Hg10 mi
7:55 am64 °FPartly sunny.3 mph100%29.76 "Hg10 mi
7:35 am68 °FOvercast.No wind88%29.77 "Hg10 mi
7:15 am68 °FOvercast.3 mph94%29.75 "Hg10 mi
6:55 am68 °FPassing clouds.3 mph94%29.76 "Hg10 mi
6:35 am68 °FPassing clouds.No wind94%29.77 "Hg10 mi
5:55 am64 °FPassing clouds.3 mph100%29.76 "Hg10 mi
5:35 am64 °FPassing clouds.No wind94%29.78 "Hg10 mi
5:15 am64 °FPassing clouds.No wind94%29.78 "Hg10 mi
4:35 am64 °FClear.No wind100%29.80 "Hg10 mi
4:15 am64 °FClear.No wind100%29.80 "Hg10 mi
3:55 am64 °FClear.No wind94%29.80 "Hg10 mi
3:35 am64 °FClear.No wind94%29.80 "Hg10 mi
3:15 am64 °FClear.No wind94%29.81 "Hg10 mi
2:55 am64 °FPassing clouds.No wind94%29.81 "Hg10 mi
2:35 am64 °FPassing clouds.No wind94%29.82 "Hg10 mi
2:15 am64 °FPassing clouds.No wind94%29.82 "Hg10 mi
1:55 am64 °FPassing clouds.No wind94%29.81 "Hg10 mi
1:35 am64 °FClear.No wind94%29.80 "Hg10 mi
1:15 am64 °FPassing clouds.No wind94%29.80 "Hg10 mi
12:55 am64 °FClear.No wind94%29.80 "Hg10 mi
12:35 am64 °FClear.3 mph94%29.80 "Hg10 mi
12:15 am66 °FClear.No wind88%29.79 "Hg10 mi
11:55 pm
Sat, Apr 10
66 °FClear.3 mph88%29.79 "Hg10 mi
11:35 pm66 °FClear.8 mph88%29.79 "Hg10 mi
11:15 pm64 °FClear.3 mph94%29.78 "Hg10 mi
10:55 pm64 °FClear.No wind94%29.79 "Hg10 mi
10:35 pm64 °FClear.7 mph94%29.78 "Hg10 mi
10:15 pm64 °FClear.7 mph94%29.78 "Hg10 mi
9:55 pm64 °FClear.7 mph94%29.79 "Hg10 mi
9:35 pm64 °FClear.7 mph94%29.79 "Hg10 mi
9:15 pm64 °FClear.5 mph94%29.81 "Hg10 mi
8:55 pm64 °FPassing clouds.3 mph94%29.82 "Hg10 mi
8:35 pm64 °FLight rain. Partly cloudy.9 mph94%29.81 "Hg10 mi
8:15 pm64 °FRain. Partly cloudy.5 mph94%29.88 "Hg4 mi
7:55 pm64 °FLight rain. Partly cloudy.3 mph94%29.88 "Hg10 mi
7:35 pm64 °FBroken clouds.3 mph94%29.88 "Hg10 mi
7:15 pm64 °FMore clouds than sun.3 mph94%29.90 "Hg10 mi
6:55 pm64 °FLight rain. More clouds than sun.7 mph88%29.91 "Hg10 mi
6:35 pm64 °FLight rain. Cloudy.7 mph88%29.93 "Hg7 mi
6:15 pm64 °FRain. Cloudy.9 mph88%29.95 "Hg10 mi
5:55 pm64 °FRain. Cloudy.12 mph88%29.95 "Hg4 mi
5:35 pm63 °FHeavy rain. Cloudy.13 mph94%29.95 "Hg2 mi
5:15 pm63 °FHeavy rain. Cloudy.20 mph94%29.95 "Hg2 mi
4:35 pm77 °FBroken clouds.16 mph74%29.86 "Hg10 mi
4:15 pm79 °FPartly sunny.10 mph70%29.86 "Hg10 mi
3:55 pm79 °FOvercast.18 mph70%29.86 "Hg10 mi
3:35 pm81 °FOvercast.18 mph70%29.86 "Hg10 mi
3:15 pm81 °FMostly cloudy.14 mph70%29.87 "Hg10 mi
2:55 pm81 °FPartly sunny.16 mph66%29.88 "Hg10 mi
2:35 pm81 °FScattered clouds.20 mph66%29.88 "Hg10 mi
2:15 pm81 °FScattered clouds.18 mph66%29.90 "Hg10 mi
1:55 pm81 °FScattered clouds.17 mph66%29.91 "Hg10 mi
1:35 pm81 °FPartly sunny.15 mph66%29.90 "Hg10 mi
1:15 pm81 °FPartly sunny.18 mph66%29.91 "Hg10 mi
12:55 pm81 °FOvercast.13 mph66%29.90 "Hg10 mi
12:35 pm81 °FPartly sunny.14 mph66%29.90 "Hg10 mi
12:15 pm81 °FSunny.13 mph58%29.90 "Hg10 mi
11:55 am79 °FScattered clouds.15 mph61%29.90 "Hg10 mi
11:35 am79 °FScattered clouds.15 mph65%29.91 "Hg10 mi
11:15 am77 °FScattered clouds.13 mph65%29.91 "Hg10 mi
Weather by CustomWeather, © 2021

See weather overview